createdAt,value
2022-09-03T01:00:07.795Z,19.30
2022-09-03T01:01:19.524Z,20.52
2022-09-03T01:03:45.381Z,25.20
2022-09-03T01:05:02.987Z,8.23
2022-09-03T01:06:18.926Z,23.00
2022-09-03T01:07:34.278Z,10.93
2022-09-03T01:08:57.780Z,30.13
2022-09-03T01:10:15.994Z,29.13
2022-09-03T01:11:27.595Z,13.10
2022-09-03T01:12:41.518Z,5.38
2022-09-03T01:13:50.081Z,12.85
2022-09-03T01:15:07.510Z,15.63
2022-09-03T01:16:22.245Z,25.80
2022-09-03T01:17:39.794Z,13.60
2022-09-03T01:18:53.321Z,10.93
2022-09-03T01:20:20.958Z,7.50
2022-09-03T01:21:43.813Z,9.73
2022-09-03T01:23:28.659Z,28.98
2022-09-03T01:25:10.884Z,5.63
2022-09-03T01:26:33.822Z,13.45
2022-09-03T01:27:48.693Z,4.97
2022-09-03T01:29:03.085Z,14.65
2022-09-03T01:30:10.540Z,23.42
2022-09-03T01:31:24.366Z,28.85
2022-09-03T01:32:40.107Z,6.07
2022-09-03T01:33:50.602Z,7.68
2022-09-03T01:35:04.136Z,7.30
2022-09-03T01:36:13.167Z,5.05
2022-09-03T01:37:28.139Z,14.10
2022-09-03T01:38:42.858Z,32.67
2022-09-03T01:39:58.699Z,21.20
2022-09-03T01:41:26.681Z,8.50
2022-09-03T01:42:43.115Z,15.93
2022-09-03T01:43:54.833Z,26.08
2022-09-03T01:46:26.128Z,9.45
2022-09-03T01:47:41.010Z,4.38
2022-09-03T01:48:49.760Z,17.02
2022-09-03T01:50:05.773Z,8.77
2022-09-03T01:51:19.995Z,26.42
2022-09-03T01:52:38.987Z,9.75
2022-09-03T01:54:02.028Z,9.40
2022-09-03T01:55:22.841Z,16.17
2022-09-03T01:56:35.973Z,21.60
2022-09-03T01:57:56.265Z,14.52
2022-09-03T01:59:07.289Z,10.93
2022-09-03T02:00:13.962Z,13.35
2022-09-03T02:01:26.785Z,15.43
2022-09-03T02:02:33.401Z,10.18
2022-09-03T02:03:40.817Z,9.80
2022-09-03T02:04:57.350Z,19.52
2022-09-03T02:06:03.893Z,20.42
2022-09-03T02:07:06.745Z,20.30
2022-09-03T02:08:13.461Z,23.13
2022-09-03T02:09:15.550Z,8.55
2022-09-03T02:10:22.484Z,10.52
2022-09-03T02:11:24.916Z,8.00
2022-09-03T02:12:33.800Z,9.82
2022-09-03T02:13:39.823Z,6.70
2022-09-03T02:14:45.181Z,5.25
2022-09-03T02:15:50.546Z,18.73
2022-09-03T02:17:00.521Z,4.40
2022-09-03T02:18:06.334Z,10.02
2022-09-03T02:19:14.804Z,12.18
2022-09-03T02:20:20.976Z,5.93
2022-09-03T02:21:27.372Z,21.13
2022-09-03T02:22:29.465Z,17.33
2022-09-03T02:23:34.130Z,6.13
2022-09-03T02:24:36.519Z,14.48
2022-09-03T02:25:44.368Z,14.00
2022-09-03T02:26:46.991Z,9.43
2022-09-03T02:27:53.465Z,27.15
2022-09-03T02:28:57.071Z,17.48
2022-09-03T02:30:03.002Z,24.15
2022-09-03T02:31:05.591Z,26.52
2022-09-03T02:32:15.009Z,33.63
2022-09-03T02:33:17.309Z,20.83
2022-09-03T02:34:21.938Z,22.23
2022-09-03T02:35:23.973Z,31.10
2022-09-03T02:36:32.550Z,14.75
2022-09-03T02:37:35.074Z,16.48
2022-09-03T02:38:39.846Z,20.83
2022-09-03T02:39:42.435Z,10.43
2022-09-03T02:40:47.262Z,21.58
2022-09-03T02:41:54.989Z,10.00
2022-09-03T02:42:59.728Z,26.48
2022-09-03T02:44:06.612Z,19.65
2022-09-03T02:45:22.634Z,14.73
2022-09-03T02:46:32.640Z,5.10
2022-09-03T02:47:39.523Z,9.38
2022-09-03T02:48:44.308Z,9.35
2022-09-03T02:49:46.958Z,8.43
2022-09-03T02:50:51.765Z,3.22
2022-09-03T02:51:58.558Z,3.97
2022-09-03T02:53:03.173Z,11.10
2022-09-03T02:54:05.734Z,7.95
2022-09-03T02:55:11.434Z,25.95
2022-09-03T02:56:13.945Z,11.18
2022-09-03T02:57:23.851Z,14.80
2022-09-03T02:58:31.669Z,25.10
2022-09-03T02:59:36.455Z,21.00
2022-09-03T03:00:38.962Z,25.23
2022-09-03T03:01:43.569Z,28.75
2022-09-03T03:02:52.531Z,25.55
2022-09-03T03:03:57.206Z,7.65
2022-09-03T03:04:59.435Z,9.98
2022-09-03T03:06:06.798Z,17.95
2022-09-03T03:07:08.839Z,24.35
2022-09-03T03:08:15.342Z,21.77
2022-09-03T03:09:17.525Z,10.77
2022-09-03T03:10:22.165Z,12.73
2022-09-03T03:11:26.417Z,8.13
2022-09-03T03:12:31.459Z,10.43
2022-09-03T03:13:34.291Z,5.95
2022-09-03T03:14:41.256Z,6.88
2022-09-03T03:15:44.365Z,6.05
2022-09-03T03:16:49.048Z,4.13
2022-09-03T03:17:56.202Z,9.60
2022-09-03T03:19:00.936Z,22.80
2022-09-03T03:20:04.014Z,12.20
2022-09-03T03:21:10.001Z,20.05
2022-09-03T03:22:12.052Z,6.95
2022-09-03T03:23:16.888Z,9.90
2022-09-03T03:24:19.044Z,6.45
2022-09-03T03:25:23.729Z,22.25
2022-09-03T03:26:25.755Z,7.40
2022-09-03T03:27:32.516Z,2.78
2022-09-03T03:28:35.001Z,16.98
2022-09-03T03:29:39.689Z,9.50
2022-09-03T03:30:43.129Z,8.90
2022-09-03T03:31:47.826Z,4.65
2022-09-03T03:32:50.128Z,2.55
2022-09-03T03:33:59.199Z,6.15
2022-09-03T03:35:01.196Z,11.63
2022-09-03T03:36:09.866Z,12.63
2022-09-03T03:37:14.767Z,11.70
2022-09-03T03:38:16.820Z,9.98
2022-09-03T03:39:21.409Z,9.80
2022-09-03T03:40:23.500Z,9.52
2022-09-03T03:41:34.472Z,10.13
2022-09-03T03:42:36.640Z,22.63
2022-09-03T03:43:41.490Z,24.63
2022-09-03T03:44:44.092Z,29.20
2022-09-03T03:45:59.560Z,19.30
2022-09-03T03:47:02.450Z,22.67
2022-09-03T03:48:07.162Z,22.45
2022-09-03T03:49:12.062Z,23.17
2022-09-03T03:50:17.018Z,8.73
2022-09-03T03:51:19.813Z,23.17
2022-09-03T03:52:24.378Z,19.00
2022-09-03T03:53:26.387Z,10.02
2022-09-03T03:54:31.445Z,10.07
2022-09-03T03:55:35.330Z,10.98
2022-09-03T03:56:40.099Z,10.77
2022-09-03T03:57:42.170Z,11.00
2022-09-03T03:58:48.536Z,26.85
2022-09-03T03:59:50.963Z,7.72
2022-09-03T04:00:56.104Z,14.05
2022-09-03T04:01:58.329Z,5.63
2022-09-03T04:03:03.049Z,5.30
2022-09-03T04:04:08.170Z,22.55
2022-09-03T04:05:15.056Z,7.60
2022-09-03T04:06:22.285Z,10.35
2022-09-03T04:07:24.333Z,6.10
2022-09-03T04:08:29.464Z,5.47
2022-09-03T04:09:31.714Z,6.28
2022-09-03T04:10:36.335Z,11.10
2022-09-03T04:11:39.138Z,8.77
2022-09-03T04:12:43.875Z,4.28
2022-09-03T04:13:47.052Z,4.78
2022-09-03T04:14:51.638Z,4.13
2022-09-03T04:16:01.079Z,10.30
2022-09-03T04:17:05.811Z,4.97
2022-09-03T04:18:08.663Z,6.95
2022-09-03T04:19:13.503Z,6.60
2022-09-03T04:20:18.158Z,8.38
2022-09-03T04:21:24.814Z,12.20
2022-09-03T04:22:29.693Z,12.63
2022-09-03T04:23:35.229Z,7.20
2022-09-03T04:24:39.863Z,27.77
2022-09-03T04:25:42.373Z,24.73
2022-09-03T04:26:47.362Z,22.05
2022-09-03T04:27:52.627Z,11.68
2022-09-03T04:28:57.591Z,19.05
2022-09-03T04:30:00.144Z,35.05
2022-09-03T04:31:08.461Z,19.45
2022-09-03T04:32:26.070Z,8.63
2022-09-03T04:33:30.938Z,14.73
2022-09-03T04:34:33.016Z,10.23
2022-09-03T04:35:41.141Z,14.82
2022-09-03T04:36:43.233Z,5.88
2022-09-03T04:37:47.864Z,7.90
2022-09-03T04:38:51.917Z,18.25
2022-09-03T04:39:56.797Z,6.93
2022-09-03T04:40:59.946Z,19.95
2022-09-03T04:42:04.661Z,6.25
2022-09-03T04:43:06.843Z,9.68
2022-09-03T04:44:11.458Z,8.27
2022-09-03T04:45:18.695Z,5.40
2022-09-03T04:46:25.043Z,13.00
2022-09-03T04:47:28.274Z,15.77
2022-09-03T04:48:35.253Z,10.15
2022-09-03T04:49:40.301Z,4.63
2022-09-03T04:50:47.478Z,5.85
2022-09-03T04:51:50.253Z,16.48
2022-09-03T04:52:56.401Z,13.23
2022-09-03T04:54:02.742Z,7.43
2022-09-03T04:55:06.345Z,17.30
2022-09-03T04:56:16.055Z,12.02
2022-09-03T04:57:18.132Z,15.93
2022-09-03T04:58:22.808Z,18.90
2022-09-03T04:59:25.307Z,18.60
2022-09-03T05:00:30.271Z,15.98
2022-09-03T05:01:34.337Z,30.55
2022-09-03T05:02:40.026Z,19.48
2022-09-03T05:03:42.189Z,13.57
2022-09-03T05:04:48.451Z,17.13
2022-09-03T05:05:57.005Z,14.60
2022-09-03T05:07:01.656Z,15.35
2022-09-03T05:08:04.375Z,14.48
2022-09-03T05:09:09.584Z,10.57
2022-09-03T05:10:16.396Z,12.80
2022-09-03T05:11:21.588Z,8.85
2022-09-03T05:12:23.721Z,16.17
2022-09-03T05:13:28.695Z,10.23
2022-09-03T05:14:33.305Z,9.75
2022-09-03T05:15:35.540Z,22.45
2022-09-03T05:16:40.332Z,15.80
2022-09-03T05:17:42.441Z,4.70
2022-09-03T05:18:47.928Z,21.55
2022-09-03T05:19:50.055Z,4.45
2022-09-03T05:21:04.490Z,7.82
2022-09-03T05:22:08.171Z,3.95
2022-09-03T05:23:13.077Z,11.73
2022-09-03T05:24:15.547Z,14.18
2022-09-03T05:25:20.190Z,4.97
2022-09-03T05:26:24.876Z,21.83
2022-09-03T05:27:29.535Z,13.07
2022-09-03T05:28:31.882Z,21.88
2022-09-03T05:29:36.668Z,13.00
2022-09-03T05:30:38.750Z,7.82
2022-09-03T05:31:43.390Z,13.82
2022-09-03T05:32:45.442Z,33.00
2022-09-03T05:33:53.375Z,27.15
2022-09-03T05:34:55.839Z,27.55
2022-09-03T05:36:08.820Z,16.42
2022-09-03T05:37:11.822Z,14.55
2022-09-03T05:38:17.205Z,11.52
2022-09-03T05:39:19.296Z,14.73
2022-09-03T05:40:24.053Z,14.82
2022-09-03T05:41:27.461Z,26.33
2022-09-03T05:42:32.579Z,13.45
2022-09-03T05:43:35.298Z,17.33
2022-09-03T05:44:39.944Z,17.80
2022-09-03T05:45:42.296Z,12.60
2022-09-03T05:46:47.274Z,14.00
2022-09-03T05:47:49.457Z,9.13
2022-09-03T05:48:54.368Z,16.45
2022-09-03T05:49:56.418Z,14.25
2022-09-03T05:51:08.823Z,26.52
2022-09-03T05:52:13.594Z,14.77
2022-09-03T05:53:17.584Z,31.10
2022-09-03T05:54:22.238Z,12.50
2022-09-03T05:55:24.315Z,16.60
2022-09-03T05:56:30.857Z,13.07
2022-09-03T05:57:33.429Z,11.20
2022-09-03T05:58:43.600Z,14.35
2022-09-03T05:59:48.275Z,20.05
2022-09-03T06:00:50.343Z,12.90
2022-09-03T06:01:59.395Z,9.48
2022-09-03T06:03:02.354Z,8.90
2022-09-03T06:04:08.716Z,8.95
2022-09-03T06:05:10.780Z,7.78
2022-09-03T06:06:18.590Z,4.28
2022-09-03T06:07:21.476Z,7.15
2022-09-03T06:08:26.566Z,5.85
2022-09-03T06:09:31.226Z,21.67
2022-09-03T06:10:40.715Z,8.40
2022-09-03T06:11:46.192Z,5.20
2022-09-03T06:12:51.889Z,15.70
2022-09-03T06:13:56.850Z,9.93
2022-09-03T06:14:59.121Z,9.05
2022-09-03T06:16:06.035Z,5.72
2022-09-03T06:17:11.334Z,18.50
2022-09-03T06:18:16.130Z,8.88
2022-09-03T06:19:18.896Z,13.82
2022-09-03T06:20:27.792Z,7.85
2022-09-03T06:21:35.898Z,17.02
2022-09-03T06:22:37.951Z,24.98
2022-09-03T06:23:45.784Z,23.65
2022-09-03T06:24:51.383Z,24.98
2022-09-03T06:26:05.082Z,37.42
2022-09-03T06:27:10.249Z,15.32
2022-09-03T06:28:12.391Z,12.18
2022-09-03T06:29:18.546Z,12.55
2022-09-03T06:30:20.793Z,16.67
2022-09-03T06:31:26.083Z,8.30
2022-09-03T06:32:29.440Z,7.50
2022-09-03T06:33:36.019Z,11.82
2022-09-03T06:34:40.818Z,4.55
2022-09-03T06:35:43.404Z,19.23
2022-09-03T06:36:51.308Z,5.25
2022-09-03T06:37:56.585Z,13.23
2022-09-03T06:39:02.350Z,10.88
2022-09-03T06:40:05.002Z,6.40
2022-09-03T06:41:11.218Z,9.90
2022-09-03T06:42:13.474Z,14.32
2022-09-03T06:43:18.450Z,5.05
2022-09-03T06:44:20.688Z,7.38
2022-09-03T06:45:25.387Z,11.57
2022-09-03T06:46:30.032Z,6.85
2022-09-03T06:47:35.127Z,5.53
2022-09-03T06:48:40.857Z,12.68
2022-09-03T06:49:45.513Z,6.03
2022-09-03T06:50:54.294Z,19.15
2022-09-03T06:52:01.456Z,9.30
2022-09-03T06:53:03.544Z,21.83
2022-09-03T06:54:10.698Z,12.50
2022-09-03T06:55:12.836Z,10.40
2022-09-03T06:56:19.808Z,8.18
2022-09-03T06:57:24.441Z,19.88
2022-09-03T06:58:30.157Z,13.70
2022-09-03T06:59:34.843Z,17.35
2022-09-03T07:00:37.002Z,15.25
2022-09-03T07:01:45.291Z,15.48
2022-09-03T07:02:48.870Z,16.65
2022-09-03T07:03:58.161Z,12.02
2022-09-03T07:05:00.547Z,20.02
2022-09-03T07:06:05.616Z,9.90
2022-09-03T07:07:13.382Z,18.25
2022-09-03T07:08:18.046Z,7.03
2022-09-03T07:09:22.721Z,21.40
2022-09-03T07:10:26.158Z,6.20
2022-09-03T07:11:35.919Z,5.82
2022-09-03T07:12:37.983Z,11.15
2022-09-03T07:13:44.327Z,9.10
2022-09-03T07:14:51.184Z,8.68
2022-09-03T07:16:00.264Z,8.57
2022-09-03T07:17:05.080Z,7.03
2022-09-03T07:18:07.154Z,5.82
2022-09-03T07:19:13.513Z,14.45
2022-09-03T07:20:15.785Z,9.38
2022-09-03T07:21:22.465Z,11.02
2022-09-03T07:22:31.733Z,13.00
2022-09-03T07:23:37.155Z,11.05
2022-09-03T07:24:46.939Z,23.33
2022-09-03T07:25:53.784Z,17.08
2022-09-03T07:26:58.421Z,16.70
2022-09-03T07:28:00.564Z,18.23
2022-09-03T07:29:05.815Z,20.70
2022-09-03T07:30:10.460Z,11.88
2022-09-03T07:31:19.566Z,6.15
2022-09-03T07:32:24.217Z,18.15
2022-09-03T07:33:26.397Z,13.73
2022-09-03T07:34:31.691Z,12.85
2022-09-03T07:35:36.851Z,12.57
2022-09-03T07:36:43.367Z,17.00
2022-09-03T07:37:48.047Z,17.23
2022-09-03T07:38:53.034Z,7.03
2022-09-03T07:39:58.632Z,17.33
2022-09-03T07:41:02.081Z,13.00
2022-09-03T07:42:11.128Z,40.30
2022-09-03T07:43:13.398Z,6.80
2022-09-03T07:44:22.952Z,9.30
2022-09-03T07:45:25.116Z,18.10
2022-09-03T07:46:30.522Z,13.98
2022-09-03T07:47:34.722Z,9.13
2022-09-03T07:48:39.351Z,26.70
2022-09-03T07:49:41.407Z,58.15
2022-09-03T07:50:47.866Z,51.75
2022-09-03T07:51:52.453Z,23.25
2022-09-03T07:53:02.029Z,12.95
2022-09-03T07:54:10.189Z,28.23
2022-09-03T07:55:12.302Z,19.92
2022-09-03T07:56:18.088Z,21.25
2022-09-03T07:57:21.089Z,12.80
2022-09-03T07:58:26.118Z,16.40
2022-09-03T07:59:31.512Z,18.20
2022-09-03T08:00:34.191Z,25.88
2022-09-03T08:01:41.701Z,81.55
2022-09-03T08:02:46.223Z,32.80
2022-09-03T08:03:53.274Z,27.35
2022-09-03T08:04:55.364Z,29.85
2022-09-03T08:06:04.133Z,12.02
2022-09-03T08:07:08.764Z,23.88
2022-09-03T08:08:15.508Z,14.88
2022-09-03T08:09:21.075Z,19.42
2022-09-03T08:10:24.772Z,13.25
2022-09-03T08:11:31.544Z,12.18
2022-09-03T08:12:33.812Z,9.70
2022-09-03T08:13:38.746Z,14.95
2022-09-03T08:14:40.792Z,10.80
2022-09-03T08:15:45.444Z,10.15
2022-09-03T08:16:48.182Z,21.33
2022-09-03T08:17:52.954Z,22.17
2022-09-03T08:18:55.035Z,17.17
2022-09-03T08:20:00.425Z,21.67
2022-09-03T08:21:02.469Z,13.55
2022-09-03T08:22:07.178Z,11.32
2022-09-03T08:23:09.240Z,10.55
2022-09-03T08:24:21.039Z,14.88
2022-09-03T08:25:23.121Z,22.17
2022-09-03T08:26:27.737Z,16.23
2022-09-03T08:27:30.237Z,16.70
2022-09-03T08:28:39.266Z,19.40
2022-09-03T08:29:43.931Z,6.40
2022-09-03T08:30:45.958Z,7.32
2022-09-03T08:31:51.332Z,3.88
2022-09-03T08:32:53.766Z,17.83
2022-09-03T08:33:59.769Z,8.73
2022-09-03T08:35:02.145Z,8.02
2022-09-03T08:36:08.397Z,8.73
2022-09-03T08:37:13.255Z,14.18
2022-09-03T08:38:17.857Z,5.15
2022-09-03T08:39:25.175Z,10.57
2022-09-03T08:40:27.336Z,16.42
2022-09-03T08:41:39.204Z,15.43
2022-09-03T08:42:50.446Z,16.20
2022-09-03T08:44:12.588Z,16.77
2022-09-03T08:45:17.826Z,20.50
2022-09-03T08:46:26.139Z,7.85
2022-09-03T08:47:37.061Z,7.32
2022-09-03T08:48:39.631Z,12.63
2022-09-03T08:49:49.974Z,4.80
2022-09-03T08:51:00.098Z,15.77
2022-09-03T08:52:08.916Z,23.98
2022-09-03T08:53:18.780Z,23.98
2022-09-03T08:54:27.564Z,16.70
2022-09-03T08:55:42.834Z,26.60
2022-09-03T08:56:46.432Z,14.98
2022-09-03T08:57:53.981Z,14.35
2022-09-03T08:58:56.410Z,10.63
2022-09-03T09:00:01.224Z,13.48
2022-09-03T09:01:13.777Z,10.75
2022-09-03T09:02:29.710Z,23.80
2022-09-03T09:03:42.650Z,33.28
2022-09-03T09:05:01.894Z,23.48
2022-09-03T09:06:11.634Z,43.78
2022-09-03T09:07:23.387Z,4.10
2022-09-03T09:08:35.543Z,30.88
2022-09-03T09:09:50.085Z,5.50
2022-09-03T09:11:02.678Z,10.00
2022-09-03T09:12:25.041Z,22.45
2022-09-03T09:13:41.257Z,26.65
2022-09-03T09:14:53.594Z,11.20
2022-09-03T09:16:09.637Z,5.40
2022-09-03T09:17:39.462Z,6.50
2022-09-03T09:18:59.470Z,23.58
2022-09-03T09:20:13.869Z,6.05
2022-09-03T09:21:25.137Z,18.10
2022-09-03T09:22:38.431Z,9.00
2022-09-03T09:23:44.766Z,22.02
2022-09-03T09:24:57.518Z,18.33
2022-09-03T09:26:02.963Z,18.88
2022-09-03T09:27:12.817Z,19.05
2022-09-03T09:28:22.711Z,14.05
2022-09-03T09:29:27.749Z,21.63
2022-09-03T09:30:35.979Z,16.73
2022-09-03T09:31:38.468Z,12.57
2022-09-03T09:32:43.142Z,4.55
2022-09-03T09:33:45.667Z,10.88
2022-09-03T09:34:52.544Z,10.07
2022-09-03T09:35:54.919Z,5.75
2022-09-03T09:37:01.786Z,16.65
2022-09-03T09:38:03.859Z,20.30
2022-09-03T09:39:11.768Z,22.10
2022-09-03T09:40:25.754Z,11.68
2022-09-03T09:41:30.476Z,12.10
2022-09-03T09:42:32.658Z,15.40
2022-09-03T09:43:38.416Z,20.00
2022-09-03T09:44:42.799Z,14.50
2022-09-03T09:45:49.497Z,18.05
2022-09-03T09:46:54.827Z,26.08
2022-09-03T09:47:59.960Z,25.75
2022-09-03T09:49:05.075Z,33.10
2022-09-03T09:50:25.097Z,65.88
2022-09-03T09:51:33.693Z,158.80
2022-09-03T09:52:35.868Z,47.75
2022-09-03T09:53:40.682Z,126.88
2022-09-03T09:54:45.979Z,93.28
2022-09-03T09:55:58.852Z,84.97
2022-09-03T09:57:06.375Z,17.23
2022-09-03T09:58:14.289Z,16.10
2022-09-03T09:59:22.411Z,18.95
2022-09-03T10:00:24.517Z,18.83
2022-09-03T10:01:30.520Z,10.68
2022-09-03T10:02:35.590Z,12.40
2022-09-03T10:03:50.721Z,25.20
2022-09-03T10:04:53.021Z,20.30
2022-09-03T10:06:26.552Z,30.35
2022-09-03T10:07:31.448Z,12.23
2022-09-03T10:08:36.081Z,11.48
2022-09-03T10:09:40.736Z,15.02
2022-09-03T10:10:49.809Z,8.68
2022-09-03T10:12:11.137Z,2.03
2022-09-03T10:13:19.707Z,24.73
2022-09-03T10:14:26.770Z,13.15
2022-09-03T10:15:38.636Z,23.05
2022-09-03T10:16:49.148Z,8.27
2022-09-03T10:18:03.908Z,8.45
2022-09-03T10:19:11.643Z,8.15
2022-09-03T10:20:31.142Z,4.82
2022-09-03T10:21:44.045Z,16.33
2022-09-03T10:22:56.221Z,22.23
2022-09-03T10:24:08.993Z,26.05
2022-09-03T10:26:19.537Z,21.55
2022-09-03T10:27:24.225Z,3.95
2022-09-03T10:28:33.398Z,13.63
2022-09-03T10:29:36.087Z,8.85
2022-09-03T10:30:56.541Z,6.07
2022-09-03T10:32:10.247Z,14.70
2022-09-03T10:33:20.351Z,26.35
2022-09-03T10:34:37.099Z,14.48
2022-09-03T10:35:49.266Z,8.45
2022-09-03T10:37:03.331Z,12.15
2022-09-03T10:38:11.290Z,69.18
2022-09-03T10:39:24.545Z,109.25
2022-09-03T10:40:35.096Z,14.52
2022-09-03T10:41:56.012Z,33.92
2022-09-03T10:43:16.984Z,17.35
2022-09-03T10:44:48.910Z,6.50
2022-09-03T10:46:01.286Z,27.40
2022-09-03T10:47:23.000Z,22.38
2022-09-03T10:48:45.646Z,15.98
2022-09-03T10:50:01.855Z,12.90
2022-09-03T10:51:08.005Z,49.90
2022-09-03T10:52:19.889Z,15.48
2022-09-03T10:53:34.766Z,15.85
2022-09-03T10:54:52.520Z,368.40
2022-09-03T10:56:00.722Z,554.58
2022-09-03T10:57:15.727Z,928.65
2022-09-03T10:58:42.199Z,834.63
2022-09-03T11:00:04.384Z,401.33
2022-09-03T11:01:14.878Z,277.98
2022-09-03T11:02:32.478Z,289.13
2022-09-03T11:04:03.347Z,271.27
2022-09-03T11:05:09.483Z,202.40
2022-09-03T11:06:19.949Z,187.60
2022-09-03T11:07:25.870Z,108.05
2022-09-03T11:08:34.514Z,123.95
2022-09-03T11:09:43.516Z,150.73
2022-09-03T11:10:50.684Z,129.32
2022-09-03T11:12:00.292Z,171.25
2022-09-03T11:13:06.721Z,205.25
2022-09-03T11:14:21.075Z,157.48
2022-09-03T11:15:28.773Z,31.25
2022-09-03T11:16:36.792Z,9.88
2022-09-03T11:17:43.000Z,5.10
2022-09-03T11:18:52.527Z,6.78
2022-09-03T11:19:59.601Z,12.45
2022-09-03T11:21:12.109Z,23.65
2022-09-03T11:22:20.891Z,60.83
2022-09-03T11:23:28.053Z,13.38
2022-09-03T11:24:37.403Z,13.73
2022-09-03T11:25:44.281Z,7.47
2022-09-03T11:26:55.574Z,11.15
2022-09-03T11:28:11.811Z,20.25
2022-09-03T11:29:24.113Z,5.18
2022-09-03T11:30:32.744Z,8.63
2022-09-03T11:31:48.961Z,22.80
2022-09-03T11:32:56.081Z,16.30
2022-09-03T11:34:08.314Z,4.80
2022-09-03T11:35:16.207Z,23.17
2022-09-03T11:36:31.600Z,17.00
2022-09-03T11:37:34.557Z,8.88
2022-09-03T11:41:15.886Z,8.27
2022-09-03T11:42:31.069Z,5.70
2022-09-03T11:43:37.071Z,5.18
2022-09-03T11:44:51.365Z,8.70
2022-09-03T11:46:07.024Z,12.98
2022-09-03T11:47:23.979Z,4.70
2022-09-03T11:48:39.098Z,6.68
2022-09-03T11:49:50.904Z,5.72
2022-09-03T11:50:54.376Z,14.95
2022-09-03T11:52:03.569Z,6.65
2022-09-03T11:53:11.019Z,14.43
2022-09-03T11:54:29.423Z,14.70
2022-09-03T11:55:43.352Z,9.48
2022-09-03T11:56:50.677Z,21.55
2022-09-03T11:57:55.458Z,2.05
2022-09-03T11:59:15.949Z,7.40
2022-09-03T12:00:25.244Z,9.07
2022-09-03T12:01:28.500Z,14.82
2022-09-03T12:02:36.263Z,10.68
2022-09-03T12:03:43.798Z,12.25
2022-09-03T12:04:54.736Z,23.15
2022-09-03T12:06:19.996Z,16.05
2022-09-03T12:07:46.042Z,13.63
2022-09-03T12:09:08.785Z,20.00
2022-09-03T12:10:26.880Z,34.20
2022-09-03T12:11:44.374Z,20.33
2022-09-03T12:12:58.502Z,13.23
2022-09-03T12:14:13.894Z,34.97
2022-09-03T12:15:34.680Z,19.70
2022-09-03T12:16:55.611Z,21.13
2022-09-03T12:18:14.530Z,22.25
2022-09-03T12:19:28.020Z,13.48
2022-09-03T12:20:30.359Z,26.38
2022-09-03T12:21:41.353Z,13.85
2022-09-03T12:22:43.718Z,22.58
2022-09-03T12:23:50.562Z,43.03
2022-09-03T12:24:52.804Z,15.40
2022-09-03T12:25:57.733Z,38.55
2022-09-03T12:27:05.796Z,11.70
2022-09-03T12:28:13.511Z,36.63
2022-09-03T12:29:27.995Z,12.60
2022-09-03T12:30:33.132Z,35.72
2022-09-03T12:31:50.108Z,10.88
2022-09-03T12:33:05.026Z,13.18
2022-09-03T12:34:15.243Z,14.63
2022-09-03T12:36:46.046Z,14.32
2022-09-03T12:38:08.792Z,8.35
2022-09-03T12:39:17.434Z,18.25
2022-09-03T12:40:21.651Z,9.60
2022-09-03T12:41:31.211Z,17.17
2022-09-03T12:42:34.526Z,127.50
2022-09-03T12:43:39.745Z,39.17
2022-09-03T12:44:43.126Z,20.50
2022-09-03T12:48:44.155Z,11.68
2022-09-03T12:49:47.737Z,16.70
2022-09-03T12:52:32.534Z,15.70
2022-09-03T12:53:34.804Z,11.25
2022-09-03T12:54:45.786Z,36.72
2022-09-03T12:55:55.200Z,17.25
2022-09-03T12:57:02.150Z,21.88
2022-09-03T12:58:14.042Z,21.25
2022-09-03T12:59:19.792Z,23.15
2022-09-03T13:00:25.477Z,18.38
2022-09-03T13:01:33.867Z,652.28
2022-09-03T13:02:46.412Z,20.88
2022-09-03T13:03:54.861Z,35.28
2022-09-03T13:05:00.022Z,20.92
2022-09-03T13:06:08.228Z,25.00
2022-09-03T13:07:19.248Z,12.18
2022-09-03T13:08:23.788Z,6.32
2022-09-03T13:09:32.256Z,29.45
2022-09-03T13:10:39.031Z,30.48
2022-09-03T13:11:45.269Z,19.90
2022-09-03T13:12:53.001Z,13.23
2022-09-03T13:14:05.610Z,111.03
2022-09-03T13:15:12.354Z,173.38
2022-09-03T13:16:48.413Z,48.08
2022-09-03T13:18:16.163Z,163.68
2022-09-03T13:19:25.949Z,69.25
2022-09-03T13:20:41.480Z,54.40
2022-09-03T13:21:51.427Z,104.38
2022-09-03T13:23:10.908Z,457.15
2022-09-03T13:24:40.854Z,1064.72
2022-09-03T13:25:56.845Z,1027.28
2022-09-03T13:27:08.484Z,1129.40
2022-09-03T13:28:27.817Z,1122.38
2022-09-03T13:29:52.670Z,1115.53
2022-09-03T13:31:02.538Z,1052.50
2022-09-03T13:32:17.117Z,1024.40
2022-09-03T13:33:30.299Z,1016.33
2022-09-03T13:34:36.044Z,1018.72
2022-09-03T13:35:48.277Z,1086.95
2022-09-03T13:36:54.616Z,1105.50
2022-09-03T13:38:06.092Z,1095.45
2022-09-03T13:39:20.635Z,1096.95
2022-09-03T13:40:30.686Z,1089.70
2022-09-03T13:41:38.764Z,1090.47
2022-09-03T13:42:47.573Z,1091.38
2022-09-03T13:44:05.353Z,1093.93
2022-09-03T13:45:21.073Z,1087.07
2022-09-03T13:46:31.432Z,1079.63
2022-09-03T13:48:02.454Z,1071.60
2022-09-03T13:49:32.953Z,1076.30
2022-09-03T13:50:45.568Z,1078.35
2022-09-03T13:51:52.144Z,780.75
2022-09-03T13:53:04.660Z,679.08
2022-09-03T13:54:26.316Z,603.03
2022-09-03T13:55:49.030Z,382.70
2022-09-03T13:56:58.471Z,317.27
2022-09-03T13:58:11.003Z,279.23
2022-09-03T13:59:20.511Z,327.45
2022-09-03T14:00:33.041Z,368.10
2022-09-03T14:01:52.296Z,425.90
2022-09-03T14:03:01.330Z,392.10
2022-09-03T14:04:11.666Z,387.13
2022-09-03T14:05:23.891Z,368.45
2022-09-03T14:06:45.210Z,283.17
2022-09-03T14:08:00.266Z,265.85
2022-09-03T14:09:14.806Z,9.98
2022-09-03T14:10:25.433Z,14.48
2022-09-03T14:11:35.493Z,8.38
2022-09-03T14:12:45.782Z,29.00
2022-09-03T14:14:05.452Z,12.27
2022-09-03T14:15:16.111Z,13.43
2022-09-03T14:16:34.012Z,17.55
2022-09-03T14:17:47.074Z,23.13
2022-09-03T14:18:57.269Z,16.63
2022-09-03T14:20:09.397Z,11.10
2022-09-03T14:21:17.250Z,140.95
2022-09-03T14:22:30.497Z,132.77
2022-09-03T14:23:41.598Z,53.40
2022-09-03T14:24:51.963Z,145.45
2022-09-03T14:25:54.777Z,316.83
2022-09-03T14:27:02.060Z,369.55
2022-09-03T14:28:16.293Z,406.67
2022-09-03T14:29:25.952Z,414.23
2022-09-03T14:30:41.536Z,292.88
2022-09-03T14:32:18.176Z,920.38
2022-09-03T14:33:31.439Z,1010.80
2022-09-03T14:34:45.913Z,966.90
2022-09-03T14:36:10.055Z,899.25
2022-09-03T14:37:41.077Z,898.97
2022-09-03T14:38:58.040Z,811.30
2022-09-03T14:40:15.606Z,698.10
2022-09-03T14:41:42.689Z,503.95
2022-09-03T14:42:59.575Z,337.02
2022-09-03T14:44:28.064Z,322.17
2022-09-03T14:46:03.576Z,239.43
2022-09-03T14:47:26.337Z,183.45
2022-09-03T14:48:54.573Z,204.57
2022-09-03T14:50:25.381Z,240.02
2022-09-03T14:51:55.820Z,227.20
2022-09-03T14:53:26.134Z,213.15
2022-09-03T14:54:39.176Z,219.95
2022-09-03T14:56:07.717Z,202.60
2022-09-03T14:57:29.361Z,312.02
2022-09-03T14:58:48.188Z,381.05
2022-09-03T15:00:08.097Z,403.88
2022-09-03T15:01:23.367Z,232.75
2022-09-03T15:02:57.883Z,309.75
2022-09-03T15:04:28.501Z,272.50
2022-09-03T15:05:48.216Z,247.90
2022-09-03T15:07:21.190Z,259.70
2022-09-03T15:08:57.342Z,251.95
2022-09-03T15:10:08.314Z,257.90
2022-09-03T15:11:20.083Z,268.60
2022-09-03T15:12:29.178Z,307.98
2022-09-03T15:13:38.642Z,198.25
2022-09-03T15:14:50.154Z,317.40
2022-09-03T15:16:07.640Z,347.50
2022-09-03T15:17:31.060Z,345.88
2022-09-03T15:18:53.878Z,163.38
2022-09-03T15:20:07.608Z,157.70
2022-09-03T15:21:27.161Z,157.43
2022-09-03T15:22:50.172Z,106.60
2022-09-03T15:24:08.274Z,57.58
2022-09-03T15:25:25.813Z,58.83
2022-09-03T15:26:57.408Z,89.40
2022-09-03T15:28:14.687Z,115.35
2022-09-03T15:29:46.240Z,96.05
2022-09-03T15:30:55.659Z,53.00
2022-09-03T15:32:09.759Z,38.75
2022-09-03T15:33:30.817Z,61.05
2022-09-03T15:34:49.910Z,59.78
2022-09-03T15:36:15.139Z,104.30
2022-09-03T15:37:21.646Z,156.13
2022-09-03T15:38:42.086Z,278.42
2022-09-03T15:39:49.408Z,244.77
2022-09-03T15:40:57.197Z,210.35
2022-09-03T15:42:04.465Z,158.88
2022-09-03T15:43:10.699Z,149.88
2022-09-03T15:44:19.836Z,140.07
2022-09-03T15:45:35.400Z,201.18
2022-09-03T15:46:53.151Z,96.90
2022-09-03T15:48:10.782Z,75.30
2022-09-03T15:49:35.364Z,96.22
2022-09-03T15:50:52.827Z,80.43
2022-09-03T15:52:14.679Z,64.63
2022-09-03T15:53:36.690Z,97.32
2022-09-03T15:54:49.358Z,84.50
2022-09-03T15:56:13.681Z,340.33
2022-09-03T15:58:08.051Z,316.15
2022-09-03T15:59:26.929Z,340.60
2022-09-03T16:00:31.159Z,612.47
2022-09-03T16:01:48.139Z,647.10
2022-09-03T16:02:59.093Z,765.17
2022-09-03T16:04:10.414Z,1021.78
2022-09-03T16:05:26.541Z,1056.03
2022-09-03T16:06:38.130Z,211.30
2022-09-03T16:09:00.291Z,479.23